Tropical Cyclones
[Index]
Main Index Home Page Stock Weather Photos Extreme Storms Discussion Storm News and Storm Chasing Reports Tropical Cyclones / Hurricanes / Typhoons Weather Data and Links Wild Fires / Bushfires Weather Observation Techniques Weather Picture Catalogue Tornado Pictures and Reports Stock Video Footage and DVDs for sale
Season 1996-1997 Tropical Cyclone FERGUS Track Map
Season 1996-1997 Summaries: [BoM-AU] [JTWC-AU] [JTWC-SIO] [JTWC-SPAC] [JTWC-SH]
<<- Previous TC | JTWC 1996-1997 Season | Next TC ->>

click for intensity scale information  Lat/long Grid: Show Hide

 Date Labels: Show Hide

Joint Typhoon Warning Centre Cyclone Data

Name: FERGUS

19 Dec 1996 06:00 UTC to 30 Dec 1996 18:00 UTC

    date/time    lat    long     hPa   cat  kts
1996-12-19 06    4.9   170.1                  15          
1996-12-19 12    4.9   169.1                  15          
1996-12-19 18    5.0   168.1                  20          
1996-12-20 00    5.2   167.2                  20          
1996-12-20 06    5.5   166.4                  20          
1996-12-20 12    5.9   165.7                  20          
1996-12-20 18    6.6   165.3                  20          
1996-12-21 00    7.2   165.0                  20          
1996-12-21 06    7.7   164.5                  20          
1996-12-21 12    8.3   163.9                  20          
1996-12-21 18    9.0   163.3                  20          
1996-12-22 00    9.7   162.6                  20          
1996-12-22 06   10.5   161.9                  20          
1996-12-22 12   11.3   161.3                  20          
1996-12-22 18   11.9   160.9                  20          
1996-12-23 00   12.4   160.6                  20          
1996-12-23 06   12.7   160.3                  25          
1996-12-23 12   13.0   160.0                  25          
1996-12-23 18   13.1   159.7                  30          
1996-12-24 00   13.2   159.4                  35          
1996-12-24 06   13.1   158.9            1     40          
1996-12-24 12   12.6   158.5            1     45          
1996-12-24 18   12.0   158.4            1     50          
1996-12-25 00   11.4   158.7            2     55          
1996-12-25 06   10.9   159.2            2     60          
1996-12-25 12   10.8   159.8            2     65          
1996-12-25 18   10.9   160.2            2     70          
1996-12-26 00   11.2   160.6            3     75          
1996-12-26 06   11.6   161.1            3     75          
1996-12-26 12   12.2   161.7            3     75          
1996-12-26 18   12.9   162.7            3     75          
1996-12-27 00   13.8   163.8            3     75          
1996-12-27 06   15.0   164.7            3     80          
1996-12-27 12   16.3   165.8            3     85          
1996-12-27 18   17.6   167.0            3     90          
1996-12-28 00   18.9   168.1            3     90          
1996-12-28 06   20.0   169.4            3     85          
1996-12-28 12   21.3   170.5            3     85          
1996-12-28 18   22.7   171.7            3     80          
1996-12-29 00   24.2   172.8            3     75          
1996-12-29 06   25.9   173.9            2     70          
1996-12-29 12   27.8   174.9            2     65          
1996-12-29 18   30.3   175.7            2     65          
1996-12-30 00   33.0   176.0            2     65          
1996-12-30 06   35.9   176.5            2     60          
1996-12-30 12   39.0   177.2            2     55          
1996-12-30 18   42.1   178.0            2     55          
Winds are 1-min average.

Tropical cyclone tracks developed by Michael Bath using data from the Joint Typhoon Warning Centre Best Tracks and Google Maps.


[Australian Severe Weather index] [Copyright Notice] [Email Contacts] [Search This Site] [Privacy Policy]
Document: tropical_cyclone_fergus.htm Updated: 18 September 2016